createdAt,value
2022-08-10T00:00:48.753Z,2.17
2022-08-10T00:03:17.734Z,2.30
2022-08-10T00:05:52.697Z,2.30
2022-08-10T00:08:23.802Z,2.03
2022-08-10T00:10:52.595Z,2.47
2022-08-10T00:13:20.681Z,2.00
2022-08-10T00:15:54.166Z,2.33
2022-08-10T00:18:31.843Z,2.53
2022-08-10T00:21:05.110Z,1.70
2022-08-10T00:23:32.866Z,2.70
2022-08-10T00:26:00.509Z,2.10
2022-08-10T00:28:28.402Z,2.63
2022-08-10T00:30:56.022Z,2.30
2022-08-10T00:33:25.029Z,2.20
2022-08-10T00:35:52.908Z,2.27
2022-08-10T00:38:20.509Z,2.20
2022-08-10T00:40:48.351Z,2.67
2022-08-10T00:43:23.442Z,2.40
2022-08-10T00:45:58.778Z,2.53
2022-08-10T00:48:30.216Z,2.40
2022-08-10T00:50:59.624Z,2.80
2022-08-10T00:53:27.847Z,2.53
2022-08-10T00:57:14.846Z,2.70
2022-08-10T00:58:44.384Z,2.63
2022-08-10T01:02:09.256Z,3.67
2022-08-10T01:04:36.229Z,2.73
2022-08-10T01:07:00.019Z,2.80
2022-08-10T01:09:35.880Z,2.73
2022-08-10T01:12:38.673Z,2.43
2022-08-10T01:15:06.046Z,2.80
2022-08-10T01:17:50.520Z,2.63
2022-08-10T01:20:30.727Z,2.67
2022-08-10T01:23:43.456Z,2.63
2022-08-10T01:26:41.127Z,2.20
2022-08-10T01:29:43.219Z,2.37
2022-08-10T01:32:14.843Z,2.63
2022-08-10T01:34:50.462Z,2.40
2022-08-10T01:37:24.018Z,3.00
2022-08-10T01:39:57.165Z,3.40
2022-08-10T01:42:26.107Z,2.83
2022-08-10T01:44:58.486Z,2.50
2022-08-10T01:47:53.982Z,2.70
2022-08-10T01:50:27.909Z,2.83
2022-08-10T01:53:01.865Z,3.00
2022-08-10T01:55:31.752Z,2.83
2022-08-10T01:58:03.812Z,2.50
2022-08-10T02:00:36.113Z,2.70
2022-08-10T02:03:05.644Z,2.77
2022-08-10T02:05:35.200Z,2.63
2022-08-10T02:08:05.856Z,3.67
2022-08-10T02:10:35.166Z,2.70
2022-08-10T02:13:04.160Z,2.63
2022-08-10T02:15:35.076Z,2.67
2022-08-10T02:18:05.871Z,3.00
2022-08-10T02:20:39.000Z,2.57
2022-08-10T02:23:09.556Z,3.27
2022-08-10T02:25:41.643Z,3.23
2022-08-10T02:28:30.020Z,3.00
2022-08-10T02:31:06.205Z,2.90
2022-08-10T02:33:37.055Z,2.93
2022-08-10T02:36:07.852Z,3.40
2022-08-10T02:38:58.822Z,2.47
2022-08-10T02:45:13.461Z,3.40
2022-08-10T02:45:18.408Z,3.00
2022-08-10T02:47:22.399Z,2.83
2022-08-10T02:49:56.546Z,2.83
2022-08-10T02:52:30.340Z,3.50
2022-08-10T02:55:05.947Z,3.00
2022-08-10T02:58:17.547Z,3.27
2022-08-10T03:00:43.218Z,3.53
2022-08-10T03:03:18.739Z,3.17
2022-08-10T03:05:50.120Z,3.93
2022-08-10T03:08:20.575Z,3.80
2022-08-10T03:10:50.411Z,3.93
2022-08-10T03:13:20.101Z,3.43
2022-08-10T03:15:49.699Z,3.43
2022-08-10T03:18:20.940Z,4.10
2022-08-10T03:20:49.794Z,3.67
2022-08-10T03:23:19.992Z,3.70
2022-08-10T03:25:52.764Z,4.10
2022-08-10T03:28:23.579Z,3.27
2022-08-10T03:30:52.022Z,3.87
2022-08-10T03:33:21.911Z,3.83
2022-08-10T03:36:42.445Z,3.97
2022-08-10T03:38:37.668Z,3.70
2022-08-10T03:41:09.469Z,3.43
2022-08-10T03:43:38.108Z,4.63
2022-08-10T03:46:10.757Z,3.67
2022-08-10T03:48:49.047Z,3.67
2022-08-10T03:51:18.433Z,3.90
2022-08-10T03:54:05.735Z,3.83
2022-08-10T03:56:36.688Z,5.10
2022-08-10T03:59:06.369Z,4.00
2022-08-10T04:02:44.919Z,3.50
2022-08-10T04:04:25.133Z,4.37
2022-08-10T04:06:54.509Z,4.50
2022-08-10T04:09:23.859Z,4.40
2022-08-10T04:11:51.548Z,4.17
2022-08-10T04:14:38.370Z,4.63
2022-08-10T04:17:09.678Z,3.83
2022-08-10T04:19:46.831Z,4.40
2022-08-10T04:22:17.654Z,4.00
2022-08-10T04:24:47.107Z,4.30
2022-08-10T04:27:15.570Z,3.90
2022-08-10T04:29:44.148Z,4.87
2022-08-10T04:32:13.497Z,5.37
2022-08-10T04:34:45.352Z,5.10
2022-08-10T04:37:14.422Z,4.17
2022-08-10T04:39:42.534Z,4.57
2022-08-10T04:42:10.593Z,3.80
2022-08-10T04:44:38.363Z,5.47
2022-08-10T04:47:06.430Z,3.33
2022-08-10T04:49:55.116Z,4.83
2022-08-10T04:52:25.346Z,3.77
2022-08-10T04:54:53.113Z,4.20
2022-08-10T04:57:20.755Z,4.33
2022-08-10T04:59:48.453Z,4.60
2022-08-10T05:02:29.646Z,4.33
2022-08-10T05:04:58.522Z,5.20
2022-08-10T05:07:27.764Z,4.60
2022-08-10T05:10:04.001Z,4.47
2022-08-10T05:12:36.830Z,4.90
2022-08-10T05:15:09.430Z,4.30
2022-08-10T05:17:38.331Z,3.97
2022-08-10T05:20:08.551Z,4.10
2022-08-10T05:22:39.846Z,3.80
2022-08-10T05:25:09.464Z,3.87
2022-08-10T05:27:37.343Z,4.20
2022-08-10T05:30:06.960Z,3.70
2022-08-10T05:32:57.842Z,4.17
2022-08-10T05:35:23.649Z,4.10
2022-08-10T05:38:10.951Z,3.63
2022-08-10T05:40:46.764Z,4.07
2022-08-10T05:43:17.380Z,4.20
2022-08-10T05:46:16.948Z,4.20
2022-08-10T05:48:54.509Z,4.80
2022-08-10T05:51:21.691Z,4.20
2022-08-10T05:54:01.006Z,4.37
2022-08-10T05:56:55.325Z,4.43
2022-08-10T06:00:33.082Z,4.20
2022-08-10T06:02:41.087Z,3.80
2022-08-10T06:05:01.280Z,4.50
2022-08-10T06:07:31.188Z,4.63
2022-08-10T06:10:02.084Z,4.47
2022-08-10T06:12:36.417Z,4.30
2022-08-10T06:15:21.392Z,4.67
2022-08-10T06:17:59.276Z,4.17
2022-08-10T06:20:35.801Z,4.33
2022-08-10T06:23:05.252Z,4.30
2022-08-10T06:28:24.415Z,4.43
2022-08-10T06:30:54.706Z,4.17
2022-08-10T06:33:24.422Z,4.73
2022-08-10T06:35:54.802Z,3.77
2022-08-10T06:38:25.317Z,5.00
2022-08-10T06:40:58.220Z,4.03
2022-08-10T06:43:27.832Z,4.20
2022-08-10T06:46:07.305Z,3.50
2022-08-10T06:48:42.489Z,4.17
2022-08-10T06:51:17.987Z,4.20
2022-08-10T06:53:53.805Z,4.00
2022-08-10T06:56:37.668Z,3.70
2022-08-10T06:59:17.837Z,4.00
2022-08-10T07:01:53.581Z,4.23
2022-08-10T07:04:32.967Z,3.60
2022-08-10T07:07:05.119Z,3.60
2022-08-10T07:09:35.978Z,3.90
2022-08-10T07:12:09.047Z,3.40
2022-08-10T07:14:44.460Z,3.40
2022-08-10T07:17:15.216Z,3.67
2022-08-10T07:19:49.708Z,3.60
2022-08-10T07:23:01.108Z,3.60
2022-08-10T07:25:11.773Z,4.00
2022-08-10T07:27:58.848Z,3.57
2022-08-10T07:30:30.419Z,3.13
2022-08-10T07:32:59.704Z,3.23
2022-08-10T07:35:33.266Z,3.50
2022-08-10T07:38:08.432Z,3.77
2022-08-10T07:40:37.548Z,3.70
2022-08-10T07:43:08.402Z,3.10
2022-08-10T07:45:36.676Z,3.53
2022-08-10T07:48:08.366Z,2.80
2022-08-10T07:50:38.352Z,3.63
2022-08-10T07:53:11.033Z,3.40
2022-08-10T07:56:07.333Z,3.00
2022-08-10T07:58:36.573Z,3.03
2022-08-10T08:01:04.242Z,2.97
2022-08-10T08:03:33.915Z,3.77
2022-08-10T08:06:05.251Z,2.60
2022-08-10T08:08:41.388Z,3.20
2022-08-10T08:11:10.137Z,2.67
2022-08-10T08:13:56.968Z,3.10
2022-08-10T08:16:25.443Z,2.50
2022-08-10T08:19:26.347Z,2.90
2022-08-10T08:24:06.418Z,2.73
2022-08-10T08:24:36.487Z,3.20
2022-08-10T08:27:06.098Z,3.00
2022-08-10T08:29:37.923Z,2.80
2022-08-10T08:32:06.807Z,3.37
2022-08-10T08:34:38.192Z,3.00
2022-08-10T08:37:08.184Z,2.97
2022-08-10T08:39:37.239Z,3.30
2022-08-10T08:42:16.266Z,3.47
2022-08-10T08:45:00.904Z,2.63
2022-08-10T08:48:03.065Z,3.23
2022-08-10T08:50:46.184Z,2.87
2022-08-10T08:54:01.095Z,3.50
2022-08-10T08:56:21.328Z,3.37
2022-08-10T08:59:03.247Z,2.73
2022-08-10T09:01:51.014Z,3.30
2022-08-10T09:04:43.416Z,3.27
2022-08-10T09:07:59.923Z,2.80
2022-08-10T09:10:40.292Z,3.20
2022-08-10T09:13:15.226Z,3.30
2022-08-10T09:15:52.336Z,4.10
2022-08-10T09:18:29.472Z,3.37
2022-08-10T09:21:04.969Z,4.20
2022-08-10T09:24:05.448Z,2.93
2022-08-10T09:26:36.247Z,3.20
2022-08-10T09:29:12.931Z,3.00
2022-08-10T09:32:54.356Z,3.33
2022-08-10T09:36:23.355Z,3.20
2022-08-10T09:38:02.126Z,3.07
2022-08-10T09:41:00.688Z,3.90
2022-08-10T09:43:44.628Z,3.20
2022-08-10T09:46:23.423Z,3.43
2022-08-10T09:49:04.414Z,3.07
2022-08-10T09:51:54.809Z,2.80
2022-08-10T09:54:34.901Z,2.97
2022-08-10T09:57:44.467Z,3.20
2022-08-10T10:00:09.033Z,3.10
2022-08-10T10:02:43.202Z,2.63
2022-08-10T10:05:26.332Z,3.17
2022-08-10T10:08:07.032Z,3.00
2022-08-10T10:10:47.939Z,3.57
2022-08-10T10:13:58.457Z,3.03
2022-08-10T10:16:33.676Z,3.70
2022-08-10T10:19:11.414Z,3.53
2022-08-10T10:21:55.637Z,3.77
2022-08-10T10:24:36.816Z,3.20
2022-08-10T10:27:15.978Z,3.00
2022-08-10T10:29:56.644Z,3.70
2022-08-10T10:32:37.589Z,3.30
2022-08-10T10:35:16.422Z,3.70
2022-08-10T10:38:01.465Z,6.30
2022-08-10T10:40:40.748Z,3.63
2022-08-10T10:43:22.757Z,3.30
2022-08-10T10:46:04.417Z,3.50
2022-08-10T10:48:41.177Z,3.27
2022-08-10T10:51:13.859Z,3.60
2022-08-10T10:53:48.671Z,3.90
2022-08-10T10:56:27.458Z,3.00
2022-08-10T10:59:16.003Z,3.60
2022-08-10T11:02:06.311Z,3.20
2022-08-10T11:04:41.414Z,3.00
2022-08-10T11:07:31.725Z,3.47
2022-08-10T11:10:21.293Z,3.20
2022-08-10T11:14:23.103Z,3.07
2022-08-10T11:16:05.314Z,3.20
2022-08-10T11:18:49.161Z,2.90
2022-08-10T11:21:32.763Z,3.17
2022-08-10T11:24:47.146Z,3.03
2022-08-10T11:26:59.326Z,3.43
2022-08-10T11:29:35.664Z,3.13
2022-08-10T11:32:09.241Z,2.67
2022-08-10T11:35:11.256Z,2.63
2022-08-10T11:38:30.253Z,3.10
2022-08-10T11:40:45.064Z,4.00
2022-08-10T11:43:19.207Z,3.40
2022-08-10T11:45:55.914Z,2.70
2022-08-10T11:48:53.602Z,2.93
2022-08-10T11:51:27.529Z,3.20
2022-08-10T11:54:05.041Z,3.07
2022-08-10T11:56:40.161Z,3.10
2022-08-10T11:59:26.644Z,3.13
2022-08-10T12:01:57.894Z,2.30
2022-08-10T12:04:29.227Z,2.77
2022-08-10T12:06:58.899Z,2.80
2022-08-10T12:10:09.364Z,2.50
2022-08-10T12:12:17.343Z,3.00
2022-08-10T12:14:51.811Z,3.07
2022-08-10T12:17:26.107Z,2.60
2022-08-10T12:20:03.867Z,3.00
2022-08-10T12:22:37.159Z,2.63
2022-08-10T12:25:10.226Z,2.63
2022-08-10T12:27:41.382Z,2.77
2022-08-10T12:30:11.534Z,2.27
2022-08-10T12:32:49.434Z,2.40
2022-08-10T12:35:26.801Z,2.50
2022-08-10T12:38:05.824Z,2.63
2022-08-10T12:40:41.120Z,2.90
2022-08-10T12:44:07.187Z,3.00
2022-08-10T12:46:08.183Z,2.60
2022-08-10T12:48:49.384Z,2.33
2022-08-10T12:51:23.173Z,2.97
2022-08-10T12:53:57.065Z,2.80
2022-08-10T12:56:27.633Z,2.83
2022-08-10T12:59:01.144Z,2.97
2022-08-10T13:02:10.118Z,2.90
2022-08-10T13:04:35.012Z,3.20
2022-08-10T13:07:05.640Z,2.53
2022-08-10T13:09:56.185Z,2.40
2022-08-10T13:12:39.015Z,3.10
2022-08-10T13:15:44.571Z,2.77
2022-08-10T13:18:04.533Z,2.70
2022-08-10T13:20:37.881Z,2.23
2022-08-10T13:23:12.370Z,2.77
2022-08-10T13:25:48.637Z,3.00
2022-08-10T13:28:35.675Z,2.53
2022-08-10T13:31:11.737Z,3.03
2022-08-10T13:34:39.449Z,2.73
2022-08-10T13:36:40.385Z,2.73
2022-08-10T13:39:09.423Z,2.50
2022-08-10T13:41:40.619Z,2.43
2022-08-10T13:44:10.596Z,2.60
2022-08-10T13:46:42.137Z,2.73
2022-08-10T13:49:12.082Z,2.37
2022-08-10T13:51:57.154Z,2.50
2022-08-10T13:54:29.968Z,2.90
2022-08-10T13:56:58.855Z,2.27
2022-08-10T14:00:36.760Z,2.20
2022-08-10T14:02:25.470Z,2.07
2022-08-10T14:04:56.544Z,2.50
2022-08-10T14:07:28.034Z,2.17
2022-08-10T14:10:07.133Z,2.50
2022-08-10T14:12:37.463Z,2.13
2022-08-10T14:15:09.022Z,2.20
2022-08-10T14:17:44.138Z,2.60
2022-08-10T14:20:19.286Z,2.20
2022-08-10T14:22:50.688Z,2.07
2022-08-10T14:25:18.538Z,2.40
2022-08-10T14:28:03.295Z,2.33
2022-08-10T14:30:34.375Z,2.80
2022-08-10T14:33:04.684Z,2.50
2022-08-10T14:36:20.606Z,2.80
2022-08-10T14:38:29.849Z,2.03
2022-08-10T14:41:01.088Z,2.10
2022-08-10T14:43:35.604Z,2.47
2022-08-10T14:46:06.837Z,2.13
2022-08-10T14:48:39.219Z,1.80
2022-08-10T14:51:08.465Z,1.93
2022-08-10T14:53:39.320Z,2.00
2022-08-10T14:56:09.926Z,2.30
2022-08-10T14:58:59.472Z,2.30
2022-08-10T15:02:01.372Z,2.10
2022-08-10T15:04:24.600Z,1.80
2022-08-10T15:06:54.907Z,2.50
2022-08-10T15:09:26.073Z,2.50
2022-08-10T15:12:14.805Z,2.37
2022-08-10T15:14:48.109Z,2.23
2022-08-10T15:17:27.098Z,1.93
2022-08-10T15:20:03.567Z,2.70
2022-08-10T15:22:41.290Z,1.90
2022-08-10T15:25:18.829Z,1.73
2022-08-10T15:27:55.063Z,1.80
2022-08-10T15:30:30.911Z,2.17
2022-08-10T15:33:21.384Z,2.00
2022-08-10T15:36:27.475Z,1.80
2022-08-10T15:39:00.338Z,1.93
2022-08-10T15:41:59.255Z,2.30
2022-08-10T15:44:39.879Z,1.67
2022-08-10T15:47:12.155Z,2.00
2022-08-10T15:49:48.869Z,1.90
2022-08-10T15:52:40.069Z,2.27
2022-08-10T15:55:43.613Z,2.03
2022-08-10T15:58:08.059Z,2.63
2022-08-10T16:00:39.664Z,2.67
2022-08-10T16:03:17.124Z,1.80
2022-08-10T16:06:01.680Z,2.00
2022-08-10T16:08:56.552Z,1.80
2022-08-10T16:11:37.607Z,2.20
2022-08-10T16:14:17.145Z,2.33
2022-08-10T16:16:50.418Z,1.70
2022-08-10T16:19:24.061Z,2.03
2022-08-10T16:21:58.370Z,1.87
2022-08-10T16:24:30.593Z,2.50
2022-08-10T16:27:01.745Z,2.00
2022-08-10T16:29:30.908Z,1.70
2022-08-10T16:32:01.607Z,1.97
2022-08-10T16:34:31.393Z,1.70
2022-08-10T16:37:02.096Z,2.20
2022-08-10T16:39:59.795Z,1.70
2022-08-10T16:42:22.840Z,2.10
2022-08-10T16:44:54.332Z,1.70
2022-08-10T16:47:27.662Z,1.93
2022-08-10T16:49:58.033Z,1.70
2022-08-10T16:52:29.233Z,2.10
2022-08-10T16:55:10.265Z,1.87
2022-08-10T16:57:52.055Z,2.30
2022-08-10T17:00:23.120Z,1.90
2022-08-10T17:02:54.372Z,1.50
2022-08-10T17:06:01.686Z,1.90
2022-08-10T17:08:15.660Z,2.33
2022-08-10T17:10:43.897Z,1.90
2022-08-10T17:13:12.877Z,1.80
2022-08-10T17:15:49.915Z,2.00
2022-08-10T17:18:27.535Z,2.03
2022-08-10T17:20:58.072Z,2.13
2022-08-10T17:23:28.605Z,1.80
2022-08-10T17:26:01.962Z,2.40
2022-08-10T17:28:36.035Z,1.93
2022-08-10T17:31:39.745Z,2.07
2022-08-10T17:34:01.159Z,2.40
2022-08-10T17:36:33.132Z,1.90
2022-08-10T17:39:01.471Z,2.13
2022-08-10T17:41:32.951Z,2.10
2022-08-10T17:44:03.541Z,2.20
2022-08-10T17:46:35.101Z,2.17
2022-08-10T17:49:08.475Z,2.23
2022-08-10T17:51:37.755Z,2.53
2022-08-10T17:54:09.868Z,1.93
2022-08-10T17:56:39.430Z,2.33
2022-08-10T17:59:16.902Z,2.30
2022-08-10T18:02:01.706Z,2.20
2022-08-10T18:04:41.354Z,2.07
2022-08-10T18:07:10.914Z,2.03
2022-08-10T18:09:41.563Z,2.33
2022-08-10T18:12:15.777Z,2.17
2022-08-10T18:14:49.242Z,1.93
2022-08-10T18:17:21.512Z,2.20
2022-08-10T18:19:53.992Z,1.83
2022-08-10T18:22:23.621Z,2.13
2022-08-10T18:24:52.840Z,1.90
2022-08-10T18:27:22.208Z,2.13
2022-08-10T18:30:11.526Z,2.20
2022-08-10T18:32:46.793Z,2.03
2022-08-10T18:35:16.351Z,2.37
2022-08-10T18:37:49.175Z,2.33
2022-08-10T18:40:18.997Z,2.03
2022-08-10T18:42:49.594Z,1.90
2022-08-10T18:45:21.366Z,1.93
2022-08-10T18:47:59.075Z,2.20
2022-08-10T18:50:31.548Z,2.70
2022-08-10T18:53:02.413Z,2.03
2022-08-10T18:55:39.675Z,2.37
2022-08-10T18:58:45.207Z,2.50
2022-08-10T19:01:32.911Z,2.00
2022-08-10T19:04:18.859Z,2.20
2022-08-10T19:07:05.896Z,2.50
2022-08-10T19:09:48.304Z,2.07
2022-08-10T19:12:42.231Z,2.10
2022-08-10T19:15:16.149Z,2.57
2022-08-10T19:18:05.895Z,2.30
2022-08-10T19:20:41.161Z,2.23
2022-08-10T19:23:24.625Z,2.23
2022-08-10T19:26:38.074Z,2.40
2022-08-10T19:29:00.112Z,2.30
2022-08-10T19:31:44.531Z,2.50
2022-08-10T19:34:34.802Z,2.30
2022-08-10T19:37:15.522Z,2.53
2022-08-10T19:39:59.658Z,1.90
2022-08-10T19:42:35.973Z,2.63
2022-08-10T19:45:58.210Z,3.50
2022-08-10T19:48:12.790Z,2.60
2022-08-10T19:50:45.733Z,2.20
2022-08-10T19:53:32.539Z,2.20
2022-08-10T19:56:32.535Z,2.70
2022-08-10T19:59:04.013Z,2.33
2022-08-10T20:01:55.330Z,2.30
2022-08-10T20:04:31.704Z,2.70
2022-08-10T20:07:12.696Z,2.10
2022-08-10T20:09:49.815Z,2.40
2022-08-10T20:12:27.460Z,2.60
2022-08-10T20:15:03.635Z,2.37
2022-08-10T20:17:45.055Z,2.50
2022-08-10T20:20:29.017Z,2.83
2022-08-10T20:23:05.860Z,2.40
2022-08-10T20:25:35.410Z,2.20
2022-08-10T20:28:11.369Z,3.30
2022-08-10T20:30:45.591Z,2.50
2022-08-10T20:33:19.205Z,2.60
2022-08-10T20:35:49.808Z,2.40
2022-08-10T20:38:27.313Z,2.30
2022-08-10T20:41:09.489Z,2.37
2022-08-10T20:43:46.677Z,2.70
2022-08-10T20:46:22.142Z,2.70
2022-08-10T20:48:57.693Z,3.00
2022-08-10T20:51:59.091Z,2.50
2022-08-10T20:54:19.830Z,3.33
2022-08-10T20:57:53.493Z,2.57
2022-08-10T21:00:07.587Z,2.90
2022-08-10T21:02:57.795Z,2.90
2022-08-10T21:05:32.962Z,2.70
2022-08-10T21:08:14.355Z,2.90
2022-08-10T21:11:01.083Z,2.50
2022-08-10T21:13:44.039Z,3.10
2022-08-10T21:16:29.715Z,2.60
2022-08-10T21:19:21.600Z,2.70
2022-08-10T21:22:08.972Z,2.67
2022-08-10T21:24:43.782Z,2.77
2022-08-10T21:27:23.105Z,2.90
2022-08-10T21:30:09.013Z,3.20
2022-08-10T21:32:52.881Z,3.03
2022-08-10T21:35:37.378Z,2.67
2022-08-10T21:38:12.837Z,2.53
2022-08-10T21:41:17.591Z,2.80
2022-08-10T21:44:13.694Z,2.40
2022-08-10T21:47:06.063Z,2.67
2022-08-10T21:50:07.202Z,2.47
2022-08-10T21:53:04.582Z,2.37
2022-08-10T21:56:00.545Z,2.77
2022-08-10T21:58:50.168Z,2.23
2022-08-10T22:01:43.867Z,2.90
2022-08-10T22:04:32.342Z,2.50
2022-08-10T22:07:21.306Z,2.50
2022-08-10T22:10:11.765Z,2.73
2022-08-10T22:13:00.665Z,2.47
2022-08-10T22:16:10.331Z,2.27
2022-08-10T22:19:02.626Z,2.27
2022-08-10T22:22:04.381Z,2.80
2022-08-10T22:25:16.716Z,2.47
2022-08-10T22:28:07.180Z,2.50
2022-08-10T22:34:31.271Z,2.67
2022-08-10T22:37:31.648Z,2.47
2022-08-10T22:40:21.764Z,2.60
2022-08-10T22:43:11.972Z,3.17
2022-08-10T22:46:05.727Z,2.10
2022-08-10T22:48:59.670Z,2.40
2022-08-10T22:51:51.900Z,2.57
2022-08-10T22:54:46.241Z,2.20
2022-08-10T22:57:32.552Z,2.23
2022-08-10T23:00:10.636Z,2.93
2022-08-10T23:02:39.841Z,2.63
2022-08-10T23:05:11.359Z,2.57
2022-08-10T23:07:47.390Z,2.40
2022-08-10T23:10:19.891Z,2.63
2022-08-10T23:12:50.802Z,2.40
2022-08-10T23:15:40.730Z,2.50
2022-08-10T23:18:28.314Z,2.30
2022-08-10T23:20:57.958Z,2.40
2022-08-10T23:23:28.653Z,2.60
2022-08-10T23:26:01.235Z,2.93
2022-08-10T23:28:55.374Z,2.77
2022-08-10T23:32:01.264Z,2.50
2022-08-10T23:34:13.497Z,2.43
2022-08-10T23:36:42.260Z,2.20
2022-08-10T23:39:26.261Z,2.50
2022-08-10T23:42:04.623Z,2.40
2022-08-10T23:44:36.791Z,2.80
2022-08-10T23:47:05.592Z,2.20
2022-08-10T23:49:35.855Z,2.87
2022-08-10T23:52:11.038Z,2.70
2022-08-10T23:54:45.567Z,3.47
2022-08-10T23:57:18.580Z,2.80
2022-08-10T23:59:51.937Z,2.33
